createdAt,value
2022-10-13T00:02:29.651Z,99.90
2022-10-13T00:04:59.577Z,99.90
2022-10-13T00:07:30.717Z,99.90
2022-10-13T00:10:03.413Z,99.90
2022-10-13T00:12:33.765Z,99.90
2022-10-13T00:15:05.402Z,99.90
2022-10-13T00:17:36.486Z,99.90
2022-10-13T00:20:06.831Z,99.90
2022-10-13T00:22:37.618Z,99.90
2022-10-13T00:25:11.124Z,99.90
2022-10-13T00:27:41.418Z,99.90
2022-10-13T00:30:12.102Z,99.90
2022-10-13T00:32:43.498Z,99.90
2022-10-13T00:35:13.782Z,99.90
2022-10-13T00:37:44.514Z,99.90
2022-10-13T00:40:17.447Z,99.90
2022-10-13T00:42:48.428Z,99.90
2022-10-13T00:45:25.109Z,99.90
2022-10-13T00:47:59.601Z,99.90
2022-10-13T00:50:34.888Z,1.00
2022-10-13T00:53:06.376Z,1.00
2022-10-13T00:55:40.881Z,1.00
2022-10-13T00:58:16.918Z,1.00
2022-10-13T01:00:49.788Z,1.00
2022-10-13T01:03:21.988Z,1.00
2022-10-13T01:05:54.131Z,1.00
2022-10-13T01:08:27.561Z,1.00
2022-10-13T01:11:25.155Z,1.00
2022-10-13T01:14:04.801Z,1.00
2022-10-13T01:16:41.857Z,1.00
2022-10-13T01:19:28.344Z,1.00
2022-10-13T01:22:11.665Z,1.00
2022-10-13T01:24:47.696Z,1.00
2022-10-13T01:27:46.014Z,1.00
2022-10-13T01:30:21.751Z,1.00
2022-10-13T01:33:12.020Z,1.00
2022-10-13T01:35:58.504Z,1.00
2022-10-13T01:38:35.710Z,1.00
2022-10-13T01:41:12.056Z,1.00
2022-10-13T01:43:48.575Z,1.00
2022-10-13T01:46:27.500Z,1.00
2022-10-13T01:49:01.152Z,1.00
2022-10-13T01:51:34.446Z,1.00
2022-10-13T01:54:04.373Z,1.00
2022-10-13T01:56:34.941Z,1.00
2022-10-13T01:59:07.577Z,1.00
2022-10-13T02:01:59.767Z,1.00
2022-10-13T02:04:43.865Z,1.00
2022-10-13T02:07:22.309Z,1.00
2022-10-13T02:09:59.416Z,1.00
2022-10-13T02:12:34.817Z,1.00
2022-10-13T02:15:05.812Z,1.00
2022-10-13T02:17:39.254Z,1.00
2022-10-13T02:20:10.780Z,1.00
2022-10-13T02:22:47.447Z,1.00
2022-10-13T02:25:17.545Z,1.00
2022-10-13T02:27:47.723Z,1.00
2022-10-13T02:30:27.946Z,1.00
2022-10-13T02:33:01.041Z,1.00
2022-10-13T02:35:33.045Z,1.00
2022-10-13T02:38:04.111Z,1.00
2022-10-13T02:40:34.497Z,1.00
2022-10-13T02:43:05.938Z,1.00
2022-10-13T02:45:35.810Z,1.00
2022-10-13T02:48:08.974Z,1.00
2022-10-13T02:50:38.864Z,1.00
2022-10-13T02:53:09.386Z,1.00
2022-10-13T02:55:39.232Z,1.00
2022-10-13T02:58:13.372Z,1.00
2022-10-13T03:00:43.347Z,1.00
2022-10-13T03:03:17.768Z,1.00
2022-10-13T03:05:48.601Z,1.00
2022-10-13T03:08:19.678Z,1.00
2022-10-13T03:10:50.251Z,1.00
2022-10-13T03:13:20.940Z,1.00
2022-10-13T03:15:50.826Z,1.00
2022-10-13T03:18:24.109Z,1.00
2022-10-13T03:21:01.222Z,1.00
2022-10-13T03:23:32.038Z,1.00
2022-10-13T03:26:02.324Z,1.00
2022-10-13T03:28:33.238Z,1.00
2022-10-13T03:31:04.334Z,1.00
2022-10-13T03:33:37.936Z,1.00
2022-10-13T03:36:10.019Z,1.00
2022-10-13T03:38:41.425Z,1.00
2022-10-13T03:41:14.067Z,1.00
2022-10-13T03:43:45.618Z,1.00
2022-10-13T03:46:17.579Z,1.00
2022-10-13T03:48:51.777Z,1.00
2022-10-13T03:51:23.437Z,1.00
2022-10-13T03:53:54.955Z,1.00
2022-10-13T03:56:27.688Z,1.00
2022-10-13T03:58:59.330Z,1.00
2022-10-13T04:01:31.997Z,1.00
2022-10-13T04:04:05.546Z,1.00
2022-10-13T04:06:36.300Z,1.00
2022-10-13T04:09:06.523Z,1.00
2022-10-13T04:11:37.459Z,1.00
2022-10-13T04:14:07.546Z,1.00
2022-10-13T04:16:40.014Z,1.00
2022-10-13T04:19:16.453Z,1.00
2022-10-13T04:21:47.338Z,1.00
2022-10-13T04:24:17.714Z,1.00
2022-10-13T04:26:48.401Z,1.00
2022-10-13T04:29:18.287Z,1.00
2022-10-13T04:31:55.994Z,1.00
2022-10-13T04:34:28.579Z,5.50
2022-10-13T04:37:01.833Z,6.20
2022-10-13T04:39:33.681Z,6.30
2022-10-13T04:42:04.134Z,6.70
2022-10-13T04:44:34.037Z,9.70
2022-10-13T04:47:04.724Z,14.40
2022-10-13T04:49:37.364Z,19.30
2022-10-13T04:52:07.906Z,21.10
2022-10-13T04:54:37.787Z,25.60
2022-10-13T04:57:08.070Z,34.30
2022-10-13T04:59:37.960Z,36.60
2022-10-13T05:02:09.796Z,41.00
2022-10-13T05:04:42.322Z,47.20
2022-10-13T05:07:17.967Z,51.00
2022-10-13T05:09:48.977Z,54.10
2022-10-13T05:12:19.606Z,60.90
2022-10-13T05:14:49.906Z,66.60
2022-10-13T05:17:20.271Z,68.70
2022-10-13T05:19:52.981Z,73.00
2022-10-13T05:22:23.194Z,77.40
2022-10-13T05:24:53.182Z,80.40
2022-10-13T05:27:23.658Z,84.70
2022-10-13T05:29:53.508Z,88.60
2022-10-13T05:32:23.819Z,91.20
2022-10-13T05:34:56.287Z,92.50
2022-10-13T05:37:26.484Z,93.80
2022-10-13T05:39:56.369Z,95.00
2022-10-13T05:42:26.584Z,95.30
2022-10-13T05:44:56.816Z,96.40
2022-10-13T05:47:28.535Z,98.80
2022-10-13T05:50:01.716Z,99.60
2022-10-13T05:52:34.650Z,99.90
2022-10-13T05:55:07.860Z,99.90
2022-10-13T05:57:41.237Z,99.90
2022-10-13T06:00:13.589Z,99.90
2022-10-13T06:02:49.730Z,99.90
2022-10-13T06:05:24.424Z,99.90
2022-10-13T06:07:58.320Z,99.90
2022-10-13T06:10:29.246Z,99.90
2022-10-13T06:13:00.301Z,99.90
2022-10-13T06:15:39.484Z,99.90
2022-10-13T06:18:12.156Z,99.90
2022-10-13T06:44:09.434Z,99.90
2022-10-13T06:46:42.034Z,99.90
2022-10-13T06:49:13.080Z,99.90
2022-10-13T06:51:42.947Z,99.90
2022-10-13T06:54:12.822Z,99.90
2022-10-13T06:56:42.689Z,99.90
2022-10-13T06:59:13.445Z,99.90
2022-10-13T07:01:45.977Z,99.90
2022-10-13T07:04:16.066Z,99.90
2022-10-13T07:06:45.982Z,98.40
2022-10-13T07:09:16.544Z,88.10
2022-10-13T07:11:47.655Z,90.70
2022-10-13T07:14:17.829Z,90.30
2022-10-13T07:16:51.103Z,73.90
2022-10-13T07:19:21.423Z,52.80
2022-10-13T07:21:51.297Z,46.60
2022-10-13T07:24:23.421Z,28.30
2022-10-13T07:26:53.285Z,21.00
2022-10-13T07:29:23.176Z,9.80
2022-10-13T07:31:55.668Z,10.60
2022-10-13T07:34:25.803Z,16.30
2022-10-13T07:36:55.750Z,17.60
2022-10-13T07:39:25.995Z,7.40
2022-10-13T07:41:55.944Z,1.00
2022-10-13T07:44:25.893Z,1.00
2022-10-13T07:46:58.613Z,1.00
2022-10-13T07:49:28.996Z,1.00
2022-10-13T07:51:59.946Z,1.00
2022-10-13T07:54:34.375Z,1.00
2022-10-13T07:57:07.157Z,1.00
2022-10-13T07:59:37.535Z,1.00
2022-10-13T08:02:10.078Z,1.00
2022-10-13T08:04:40.209Z,1.00
2022-10-13T08:07:10.972Z,1.00
2022-10-13T08:09:41.295Z,1.00
2022-10-13T08:12:11.994Z,1.00
2022-10-13T08:14:42.160Z,1.00
2022-10-13T08:17:15.608Z,1.00
2022-10-13T08:19:45.601Z,1.00
2022-10-13T08:22:15.755Z,1.00
2022-10-13T08:24:45.738Z,1.00
2022-10-13T08:27:22.540Z,1.00
2022-10-13T08:29:54.770Z,1.00
2022-10-13T08:32:28.077Z,1.00
2022-10-13T08:34:58.096Z,1.00
2022-10-13T08:37:29.317Z,1.00
2022-10-13T08:40:01.161Z,1.00
2022-10-13T08:42:32.413Z,1.00
2022-10-13T08:45:28.870Z,1.00
2022-10-13T08:48:05.006Z,1.00
2022-10-13T08:50:38.479Z,1.00
2022-10-13T08:53:14.891Z,1.00
2022-10-13T08:55:53.584Z,1.00
2022-10-13T08:58:26.770Z,1.00
2022-10-13T09:01:03.465Z,1.00
2022-10-13T09:03:46.392Z,1.00
2022-10-13T09:06:19.746Z,1.00
2022-10-13T09:08:56.666Z,1.00
2022-10-13T09:11:28.974Z,1.00
2022-10-13T09:14:00.806Z,1.00
2022-10-13T09:16:32.854Z,1.00
2022-10-13T09:19:24.830Z,1.00
2022-10-13T09:21:56.991Z,1.00
2022-10-13T09:24:29.362Z,1.00
2022-10-13T09:27:09.129Z,1.00
2022-10-13T09:29:42.620Z,1.00
2022-10-13T09:32:24.365Z,1.00
2022-10-13T09:34:58.370Z,1.00
2022-10-13T09:37:29.583Z,1.00
2022-10-13T09:40:17.810Z,1.00
2022-10-13T09:42:54.500Z,1.00
2022-10-13T09:45:27.174Z,1.00
2022-10-13T09:48:02.091Z,1.00
2022-10-13T09:50:38.477Z,1.00
2022-10-13T09:53:25.509Z,1.00
2022-10-13T09:56:12.058Z,1.00
2022-10-13T09:58:47.463Z,1.00
2022-10-13T10:01:25.124Z,1.00
2022-10-13T10:03:56.651Z,1.00
2022-10-13T10:06:29.339Z,1.00
2022-10-13T10:12:25.458Z,1.00
2022-10-13T10:14:58.323Z,1.00
2022-10-13T10:17:34.308Z,1.00
2022-10-13T10:20:20.088Z,1.00
2022-10-13T10:22:59.718Z,1.00
2022-10-13T10:25:36.477Z,1.00
2022-10-13T10:28:19.843Z,1.00
2022-10-13T10:30:57.100Z,1.00
2022-10-13T10:33:37.074Z,1.00
2022-10-13T10:36:17.249Z,1.00
2022-10-13T10:38:55.035Z,1.00
2022-10-13T10:41:41.513Z,1.00
2022-10-13T10:44:14.135Z,1.00
2022-10-13T10:46:48.644Z,1.00
2022-10-13T10:49:26.654Z,1.00
2022-10-13T10:51:57.263Z,1.00
2022-10-13T10:54:38.875Z,1.00
2022-10-13T10:57:15.386Z,1.00
2022-10-13T10:59:54.967Z,1.00
2022-10-13T11:02:46.183Z,1.00
2022-10-13T11:05:17.312Z,1.00
2022-10-13T11:08:01.428Z,1.00
2022-10-13T11:10:34.098Z,1.00
2022-10-13T11:13:27.905Z,1.00
2022-10-13T11:15:58.429Z,1.00
2022-10-13T11:18:59.316Z,1.00
2022-10-13T11:22:05.932Z,1.00
2022-10-13T11:24:54.293Z,1.00
2022-10-13T11:27:49.834Z,1.00
2022-10-13T11:30:47.731Z,1.00
2022-10-13T11:33:36.538Z,1.00
2022-10-13T11:36:35.872Z,1.00
2022-10-13T11:39:24.127Z,1.00
2022-10-13T11:42:04.655Z,1.00
2022-10-13T11:44:41.941Z,1.00
2022-10-13T11:47:26.930Z,1.00
2022-10-13T11:50:10.885Z,1.00
2022-10-13T11:53:00.738Z,1.00
2022-10-13T11:55:42.220Z,99.90
2022-10-13T11:58:17.016Z,99.90
2022-10-13T12:00:58.844Z,99.90
2022-10-13T12:03:31.563Z,99.90
2022-10-13T12:06:06.498Z,99.90
2022-10-13T12:08:38.778Z,99.90
2022-10-13T12:11:10.653Z,99.90
2022-10-13T12:13:40.627Z,99.90
2022-10-13T12:16:17.542Z,99.90
2022-10-13T12:18:49.941Z,99.90
2022-10-13T12:21:22.659Z,99.90
2022-10-13T12:23:54.541Z,99.90
2022-10-13T12:26:26.629Z,99.90
2022-10-13T12:29:00.199Z,99.90
2022-10-13T12:31:41.536Z,99.90
2022-10-13T12:34:22.495Z,99.90
2022-10-13T12:36:58.898Z,99.90
2022-10-13T12:39:31.227Z,99.90
2022-10-13T12:42:03.489Z,99.90
2022-10-13T12:44:35.446Z,99.90
2022-10-13T12:47:08.163Z,99.90
2022-10-13T12:49:39.129Z,99.90
2022-10-13T12:52:15.149Z,99.90
2022-10-13T12:54:51.673Z,99.90
2022-10-13T12:57:25.215Z,99.90
2022-10-13T12:59:55.675Z,99.90
2022-10-13T13:02:30.862Z,99.90
2022-10-13T13:05:00.999Z,99.90
2022-10-13T13:07:35.658Z,99.90
2022-10-13T13:10:17.581Z,99.90
2022-10-13T13:12:48.392Z,99.90
2022-10-13T13:15:33.465Z,99.90
2022-10-13T13:18:35.827Z,99.90
2022-10-13T13:21:08.594Z,99.90
2022-10-13T13:23:38.608Z,99.90
2022-10-13T13:26:15.327Z,99.90
2022-10-13T13:28:49.272Z,99.90
2022-10-13T13:31:20.585Z,99.90
2022-10-13T13:33:54.113Z,99.90
2022-10-13T13:36:25.910Z,99.90
2022-10-13T13:38:56.940Z,99.90
2022-10-13T13:41:27.973Z,99.90
2022-10-13T13:43:57.922Z,99.90
2022-10-13T13:46:29.474Z,99.90
2022-10-13T13:49:02.243Z,99.90
2022-10-13T13:51:32.419Z,99.90
2022-10-13T13:54:02.637Z,99.90
2022-10-13T13:56:38.122Z,99.90
2022-10-13T13:59:08.037Z,99.90
2022-10-13T14:01:37.935Z,99.90
2022-10-13T14:04:10.477Z,99.90
2022-10-13T14:06:40.640Z,99.90
2022-10-13T14:09:10.477Z,99.90
2022-10-13T14:11:40.693Z,99.90
2022-10-13T14:14:11.050Z,99.90
2022-10-13T14:16:41.551Z,99.90
2022-10-13T14:19:14.369Z,99.90
2022-10-13T14:21:45.999Z,99.90
2022-10-13T14:24:21.424Z,99.90
2022-10-13T14:26:51.519Z,99.90
2022-10-13T14:29:21.868Z,99.90
2022-10-13T14:31:51.821Z,99.90
2022-10-13T14:34:24.390Z,99.90
2022-10-13T14:36:54.304Z,99.90
2022-10-13T14:39:25.193Z,99.90
2022-10-13T14:41:55.145Z,99.90
2022-10-13T14:44:25.336Z,99.90
2022-10-13T14:46:55.262Z,99.90
2022-10-13T14:49:27.876Z,99.90
2022-10-13T14:51:58.086Z,99.90
2022-10-13T14:54:29.402Z,99.90
2022-10-13T14:57:00.786Z,99.90
2022-10-13T14:59:31.347Z,99.90
2022-10-13T15:02:01.283Z,99.90
2022-10-13T15:04:34.528Z,99.90
2022-10-13T15:07:04.458Z,99.90
2022-10-13T15:09:53.145Z,99.90
2022-10-13T15:12:31.289Z,99.90
2022-10-13T15:15:01.625Z,99.90
2022-10-13T15:17:33.452Z,99.90
2022-10-13T15:20:07.023Z,99.90
2022-10-13T15:22:37.299Z,99.90
2022-10-13T15:25:12.803Z,99.90
2022-10-13T15:27:42.783Z,99.90
2022-10-13T15:30:14.172Z,99.90
2022-10-13T15:32:44.282Z,99.90
2022-10-13T15:35:17.662Z,99.90
2022-10-13T15:37:48.021Z,99.90
2022-10-13T15:40:18.359Z,99.90
2022-10-13T15:42:48.288Z,99.90
2022-10-13T15:45:18.688Z,99.90
2022-10-13T15:47:48.649Z,99.90
2022-10-13T15:50:21.653Z,99.90
2022-10-13T15:52:51.630Z,99.90
2022-10-13T15:55:22.532Z,99.90
2022-10-13T15:57:52.463Z,99.90
2022-10-13T16:00:22.917Z,99.90
2022-10-13T16:02:54.021Z,99.90
2022-10-13T16:05:27.271Z,99.90
2022-10-13T16:07:57.207Z,99.90
2022-10-13T16:10:27.576Z,99.90
2022-10-13T16:12:57.499Z,99.90
2022-10-13T16:15:29.254Z,99.90
2022-10-13T16:17:59.352Z,1.00
2022-10-13T16:20:35.426Z,1.00
2022-10-13T16:23:06.081Z,1.00
2022-10-13T16:25:36.536Z,1.00
2022-10-13T16:28:06.542Z,1.00
2022-10-13T16:30:39.415Z,1.00
2022-10-13T16:33:09.497Z,1.00
2022-10-13T16:35:43.264Z,1.00
2022-10-13T16:38:13.915Z,1.00
2022-10-13T16:40:44.149Z,1.00
2022-10-13T16:43:14.469Z,1.00
2022-10-13T16:45:59.907Z,1.00
2022-10-13T16:48:31.234Z,1.00
2022-10-13T16:51:11.088Z,1.00
2022-10-13T16:53:41.335Z,1.00
2022-10-13T16:56:12.525Z,1.00
2022-10-13T16:58:45.347Z,1.00
2022-10-13T17:01:15.791Z,1.00
2022-10-13T17:03:47.587Z,1.00
2022-10-13T17:06:25.184Z,1.00
2022-10-13T17:08:59.735Z,1.00
2022-10-13T17:11:32.624Z,1.00
2022-10-13T17:14:05.296Z,1.00
2022-10-13T17:16:36.993Z,1.00
2022-10-13T17:19:07.301Z,1.00
2022-10-13T17:21:41.940Z,1.00
2022-10-13T17:24:12.989Z,1.00
2022-10-13T17:26:42.964Z,1.00
2022-10-13T17:29:13.599Z,1.00
2022-10-13T17:31:44.072Z,1.00
2022-10-13T17:34:14.489Z,1.00
2022-10-13T17:36:47.328Z,1.00
2022-10-13T17:39:18.106Z,1.00
2022-10-13T17:41:52.329Z,1.00
2022-10-13T17:44:24.216Z,1.00
2022-10-13T17:46:54.155Z,1.00
2022-10-13T17:49:24.667Z,1.00
2022-10-13T17:51:57.696Z,1.00
2022-10-13T17:54:28.886Z,1.00
2022-10-13T17:56:59.157Z,1.00
2022-10-13T17:59:29.544Z,1.00
2022-10-13T18:02:00.115Z,1.00
2022-10-13T18:04:31.642Z,1.00
2022-10-13T18:07:04.639Z,1.00
2022-10-13T18:09:41.202Z,1.00
2022-10-13T18:12:12.314Z,1.00
2022-10-13T18:14:42.719Z,1.00
2022-10-13T18:17:13.007Z,1.00
2022-10-13T18:19:46.021Z,1.00
2022-10-13T18:22:18.685Z,1.00
2022-10-13T18:24:54.551Z,1.00
2022-10-13T18:27:26.895Z,1.00
2022-10-13T18:29:57.164Z,1.00
2022-10-13T18:32:27.770Z,1.00
2022-10-13T18:34:59.002Z,1.00
2022-10-13T18:37:31.635Z,1.00
2022-10-13T18:40:01.586Z,1.00
2022-10-13T18:42:31.533Z,1.00
2022-10-13T18:45:01.750Z,1.00
2022-10-13T18:47:32.409Z,1.00
2022-10-13T18:50:04.750Z,1.00
2022-10-13T18:52:37.335Z,1.00
2022-10-13T18:55:08.256Z,1.00
2022-10-13T18:57:38.812Z,1.00
2022-10-13T19:00:12.356Z,1.00
2022-10-13T19:02:42.304Z,1.00
2022-10-13T19:05:13.831Z,1.00
2022-10-13T19:07:46.456Z,1.00
2022-10-13T19:10:16.862Z,1.00
2022-10-13T19:12:50.526Z,1.00
2022-10-13T19:15:24.359Z,1.00
2022-10-13T19:17:54.787Z,1.00
2022-10-13T19:20:25.303Z,1.00
2022-10-13T19:22:58.962Z,1.00
2022-10-13T19:25:29.662Z,1.00
2022-10-13T19:27:59.692Z,1.00
2022-10-13T19:30:34.645Z,1.00
2022-10-13T19:33:09.056Z,1.00
2022-10-13T19:35:51.848Z,1.00
2022-10-13T19:38:25.101Z,1.00
2022-10-13T19:40:55.570Z,1.00
2022-10-13T19:43:25.769Z,1.00
2022-10-13T19:45:59.721Z,1.00
2022-10-13T19:48:31.278Z,1.00
2022-10-13T19:51:03.537Z,1.00
2022-10-13T19:53:39.578Z,1.00
2022-10-13T19:56:10.802Z,1.00
2022-10-13T19:58:40.870Z,1.00
2022-10-13T20:01:11.643Z,1.00
2022-10-13T20:03:41.590Z,1.00
2022-10-13T20:06:11.625Z,1.00
2022-10-13T20:08:45.063Z,1.00
2022-10-13T20:11:22.193Z,1.00
2022-10-13T20:13:57.996Z,1.00
2022-10-13T20:16:28.560Z,1.00
2022-10-13T20:19:00.741Z,1.00
2022-10-13T20:21:31.259Z,1.00
2022-10-13T20:24:04.180Z,1.00
2022-10-13T20:26:34.375Z,1.00
2022-10-13T20:29:05.150Z,1.00
2022-10-13T20:31:35.105Z,1.00
2022-10-13T20:34:05.719Z,1.00
2022-10-13T20:36:38.806Z,1.00
2022-10-13T20:39:12.344Z,1.00
2022-10-13T20:41:42.300Z,1.00
2022-10-13T20:44:13.630Z,1.00
2022-10-13T20:46:43.796Z,1.00
2022-10-13T20:49:14.394Z,1.00
2022-10-13T20:51:45.391Z,1.00
2022-10-13T20:54:19.287Z,1.00
2022-10-13T20:56:50.174Z,1.00
2022-10-13T20:59:25.668Z,1.00
2022-10-13T21:01:56.012Z,1.00
2022-10-13T21:04:26.625Z,1.00
2022-10-13T21:06:56.538Z,1.00
2022-10-13T21:09:29.159Z,1.00
2022-10-13T21:11:59.045Z,1.00
2022-10-13T21:14:29.875Z,1.00
2022-10-13T21:16:59.810Z,1.00
2022-10-13T21:19:30.463Z,1.00
2022-10-13T21:22:00.379Z,1.00
2022-10-13T21:24:33.909Z,1.00
2022-10-13T21:27:07.079Z,1.00
2022-10-13T21:29:38.165Z,1.00
2022-10-13T21:32:10.294Z,1.00
2022-10-13T21:34:43.625Z,1.00
2022-10-13T21:37:15.877Z,1.00
2022-10-13T21:39:50.623Z,1.00
2022-10-13T21:42:20.565Z,1.00
2022-10-13T21:44:55.363Z,1.00
2022-10-13T21:47:25.735Z,1.00
2022-10-13T21:49:56.492Z,1.00
2022-10-13T21:52:26.853Z,1.00
2022-10-13T21:55:00.121Z,1.00
2022-10-13T21:57:30.225Z,1.00
2022-10-13T22:00:01.207Z,1.00
2022-10-13T22:02:31.127Z,1.00
2022-10-13T22:05:01.703Z,1.00
2022-10-13T22:07:32.240Z,1.00
2022-10-13T22:10:05.725Z,1.00
2022-10-13T22:12:38.188Z,1.00
2022-10-13T22:15:10.419Z,1.00
2022-10-13T22:17:40.489Z,1.00
2022-10-13T22:20:12.026Z,1.00
2022-10-13T22:22:42.036Z,1.00
2022-10-13T22:25:15.214Z,1.00
2022-10-13T22:27:45.127Z,1.00
2022-10-13T22:30:16.079Z,1.00
2022-10-13T22:32:46.019Z,1.00
2022-10-13T22:35:16.652Z,1.00
2022-10-13T22:37:46.561Z,1.00
2022-10-13T22:40:20.061Z,1.00
2022-10-13T22:42:49.950Z,1.00
2022-10-13T22:45:20.593Z,1.00
2022-10-13T22:47:51.836Z,1.00
2022-10-13T22:50:28.479Z,1.00
2022-10-13T22:52:58.711Z,1.00
2022-10-13T22:55:32.035Z,1.00
2022-10-13T22:58:03.235Z,1.00
2022-10-13T23:00:37.559Z,1.00
2022-10-13T23:03:09.256Z,1.00
2022-10-13T23:05:43.732Z,3.30
2022-10-13T23:08:13.778Z,10.70
2022-10-13T23:10:47.164Z,15.70
2022-10-13T23:13:17.327Z,18.90
2022-10-13T23:15:53.698Z,25.70
2022-10-13T23:18:27.977Z,32.80
2022-10-13T23:20:58.276Z,41.90
2022-10-13T23:23:29.241Z,48.80
2022-10-13T23:26:05.479Z,53.90
2022-10-13T23:28:36.384Z,61.70
2022-10-13T23:31:10.223Z,68.10
2022-10-13T23:33:40.434Z,73.70
2022-10-13T23:36:14.503Z,80.60
2022-10-13T23:38:45.322Z,99.90
2022-10-13T23:41:23.975Z,91.50
2022-10-13T23:43:54.547Z,93.60
2022-10-13T23:46:25.808Z,96.50
2022-10-13T23:48:55.965Z,99.90
2022-10-13T23:51:28.337Z,99.90
2022-10-13T23:53:58.725Z,99.90
2022-10-13T23:56:32.173Z,99.90
2022-10-13T23:59:06.344Z,99.90
